Terminal Aerodrome Forecast
Issued by NWS

Home | Current Version | Previous Version | Text Only | Print | Product List | Glossary On
Versions: 1 2 3 4 5 6 7 8 9 10 11 12 13
000
FTUS45 KREV 190500
TAFTVL
TAF
KTVL 190520Z 1906/2006 VRB03KT P6SM SCT180
     FM192000 20010G17KT P6SM FEW070 SCT180
     FM200100 19004KT P6SM SCT180=

USA.gov is the U.S. government's official web portal to all federal, state and local government web resources and services.